Terminal Aerodrome Forecast
Issued by NWS Louisville, KY

Home | Current Version | Previous Version | Text Only | Print | Product List | Glossary On
Versions: 1 2 3 4 5 6 7 8 9 10 11 12 13 14 15 16 17
000
FTUS43 KLMK 242329
TAFSDF
TAF
KSDF 242329Z 2500/2606 33006KT P6SM VCSH OVC018
     FM250900 34006KT P6SM VCSH BKN008
     FM251600 34008KT P6SM BKN018
     FM252000 34007KT P6SM BKN025
     FM252200 35005KT P6SM SCT035=

USA.gov is the U.S. government's official web portal to all federal, state and local government web resources and services.